sensor_id;sensor_type;location;lat;lon;timestamp;temperature;humidity
20915;DHT22;10617;52.032;5.298;2023-02-28T00:00:54;2.20;89.20
20915;DHT22;10617;52.032;5.298;2023-02-28T00:04:56;2.20;88.50
20915;DHT22;10617;52.032;5.298;2023-02-28T00:09:02;2.20;88.80
20915;DHT22;10617;52.032;5.298;2023-02-28T00:13:05;2.20;89.80
20915;DHT22;10617;52.032;5.298;2023-02-28T00:17:07;2.20;90.10
20915;DHT22;10617;52.032;5.298;2023-02-28T00:21:09;2.30;90.10
20915;DHT22;10617;52.032;5.298;2023-02-28T00:25:11;2.30;90.00
20915;DHT22;10617;52.032;5.298;2023-02-28T00:29:13;2.40;90.80
20915;DHT22;10617;52.032;5.298;2023-02-28T00:33:14;2.50;91.00
20915;DHT22;10617;52.032;5.298;2023-02-28T00:37:16;2.50;91.40
20915;DHT22;10617;52.032;5.298;2023-02-28T00:41:18;2.70;91.40
20915;DHT22;10617;52.032;5.298;2023-02-28T00:45:20;2.70;91.40
20915;DHT22;10617;52.032;5.298;2023-02-28T00:49:22;2.80;91.60
20915;DHT22;10617;52.032;5.298;2023-02-28T00:53:24;2.90;92.00
20915;DHT22;10617;52.032;5.298;2023-02-28T00:57:26;2.90;92.40
20915;DHT22;10617;52.032;5.298;2023-02-28T01:01:28;3.00;92.30
20915;DHT22;10617;52.032;5.298;2023-02-28T01:05:30;3.10;92.70
20915;DHT22;10617;52.032;5.298;2023-02-28T01:09:31;3.10;92.90
20915;DHT22;10617;52.032;5.298;2023-02-28T01:13:33;3.10;93.10
20915;DHT22;10617;52.032;5.298;2023-02-28T01:17:35;3.20;92.70
20915;DHT22;10617;52.032;5.298;2023-02-28T01:21:37;3.20;92.70
20915;DHT22;10617;52.032;5.298;2023-02-28T01:25:38;3.30;92.80
20915;DHT22;10617;52.032;5.298;2023-02-28T01:29:40;3.30;92.90
20915;DHT22;10617;52.032;5.298;2023-02-28T01:33:42;3.30;92.80
20915;DHT22;10617;52.032;5.298;2023-02-28T01:37:43;3.30;93.00
20915;DHT22;10617;52.032;5.298;2023-02-28T01:41:45;3.30;92.90
20915;DHT22;10617;52.032;5.298;2023-02-28T01:45:47;3.40;93.00
20915;DHT22;10617;52.032;5.298;2023-02-28T01:49:48;3.40;93.20
20915;DHT22;10617;52.032;5.298;2023-02-28T01:53:54;3.40;93.40
20915;DHT22;10617;52.032;5.298;2023-02-28T01:57:58;3.40;93.80
20915;DHT22;10617;52.032;5.298;2023-02-28T02:02:01;3.40;93.80
20915;DHT22;10617;52.032;5.298;2023-02-28T02:06:03;3.40;94.00
20915;DHT22;10617;52.032;5.298;2023-02-28T02:10:19;3.50;93.70
20915;DHT22;10617;52.032;5.298;2023-02-28T02:35:31;3.60;94.10
20915;DHT22;10617;52.032;5.298;2023-02-28T02:39:36;3.50;93.80
20915;DHT22;10617;52.032;5.298;2023-02-28T02:43:44;3.60;93.90
20915;DHT22;10617;52.032;5.298;2023-02-28T02:47:48;3.60;94.10
20915;DHT22;10617;52.032;5.298;2023-02-28T02:51:50;3.60;94.40
20915;DHT22;10617;52.032;5.298;2023-02-28T02:55:53;3.60;94.50
20915;DHT22;10617;52.032;5.298;2023-02-28T03:23:23;3.50;94.70
20915;DHT22;10617;52.032;5.298;2023-02-28T03:27:29;3.50;94.50
20915;DHT22;10617;52.032;5.298;2023-02-28T03:31:33;3.50;94.50
20915;DHT22;10617;52.032;5.298;2023-02-28T03:45:56;3.50;94.70
20915;DHT22;10617;52.032;5.298;2023-02-28T03:50:07;3.50;95.10
20915;DHT22;10617;52.032;5.298;2023-02-28T03:54:12;3.40;95.50
20915;DHT22;10617;52.032;5.298;2023-02-28T03:58:26;3.40;95.10
20915;DHT22;10617;52.032;5.298;2023-02-28T04:02:28;3.50;95.20
20915;DHT22;10617;52.032;5.298;2023-02-28T04:06:30;3.40;95.30
20915;DHT22;10617;52.032;5.298;2023-02-28T04:10:32;3.50;95.30
20915;DHT22;10617;52.032;5.298;2023-02-28T04:14:34;3.40;95.00
20915;DHT22;10617;52.032;5.298;2023-02-28T04:18:36;3.40;95.30
20915;DHT22;10617;52.032;5.298;2023-02-28T04:22:38;3.40;96.00
20915;DHT22;10617;52.032;5.298;2023-02-28T04:26:40;3.40;95.90
20915;DHT22;10617;52.032;5.298;2023-02-28T04:30:42;3.30;96.30
20915;DHT22;10617;52.032;5.298;2023-02-28T04:34:43;3.30;95.80
20915;DHT22;10617;52.032;5.298;2023-02-28T04:38:45;3.20;96.40
20915;DHT22;10617;52.032;5.298;2023-02-28T04:42:47;3.20;96.40
20915;DHT22;10617;52.032;5.298;2023-02-28T04:46:48;3.20;96.30
20915;DHT22;10617;52.032;5.298;2023-02-28T04:50:51;3.20;96.00
20915;DHT22;10617;52.032;5.298;2023-02-28T04:54:53;3.20;95.90
20915;DHT22;10617;52.032;5.298;2023-02-28T04:58:54;3.20;95.70
20915;DHT22;10617;52.032;5.298;2023-02-28T05:02:56;3.10;95.60
20915;DHT22;10617;52.032;5.298;2023-02-28T05:06:57;3.10;95.90
20915;DHT22;10617;52.032;5.298;2023-02-28T05:10:59;3.10;95.90
20915;DHT22;10617;52.032;5.298;2023-02-28T05:15:02;3.00;95.80
20915;DHT22;10617;52.032;5.298;2023-02-28T05:19:04;3.00;96.00
20915;DHT22;10617;52.032;5.298;2023-02-28T05:23:06;2.90;96.10
20915;DHT22;10617;52.032;5.298;2023-02-28T05:27:09;2.90;96.60
20915;DHT22;10617;52.032;5.298;2023-02-28T05:31:11;2.90;95.80
20915;DHT22;10617;52.032;5.298;2023-02-28T05:39:43;2.80;96.30
20915;DHT22;10617;52.032;5.298;2023-02-28T05:43:44;2.80;96.00
20915;DHT22;10617;52.032;5.298;2023-02-28T05:47:46;2.80;96.10
20915;DHT22;10617;52.032;5.298;2023-02-28T05:51:48;2.80;95.80
20915;DHT22;10617;52.032;5.298;2023-02-28T05:55:50;2.80;95.90
20915;DHT22;10617;52.032;5.298;2023-02-28T05:59:51;2.80;96.10
20915;DHT22;10617;52.032;5.298;2023-02-28T06:03:53;2.80;96.30
20915;DHT22;10617;52.032;5.298;2023-02-28T06:07:54;2.80;96.30
20915;DHT22;10617;52.032;5.298;2023-02-28T06:11:59;2.80;96.40
20915;DHT22;10617;52.032;5.298;2023-02-28T06:16:01;2.80;96.40
20915;DHT22;10617;52.032;5.298;2023-02-28T06:20:04;2.80;96.60
20915;DHT22;10617;52.032;5.298;2023-02-28T06:24:05;2.80;96.50
20915;DHT22;10617;52.032;5.298;2023-02-28T06:28:07;2.70;96.40
20915;DHT22;10617;52.032;5.298;2023-02-28T06:32:09;2.70;96.90
20915;DHT22;10617;52.032;5.298;2023-02-28T06:36:11;2.70;97.20
20915;DHT22;10617;52.032;5.298;2023-02-28T06:40:13;2.70;96.80
20915;DHT22;10617;52.032;5.298;2023-02-28T06:44:15;2.60;97.10
20915;DHT22;10617;52.032;5.298;2023-02-28T06:48:17;2.60;96.70
20915;DHT22;10617;52.032;5.298;2023-02-28T06:52:19;2.70;97.30
20915;DHT22;10617;52.032;5.298;2023-02-28T06:56:20;2.70;97.90
20915;DHT22;10617;52.032;5.298;2023-02-28T07:10:23;2.80;97.10
20915;DHT22;10617;52.032;5.298;2023-02-28T07:14:25;2.80;97.20
20915;DHT22;10617;52.032;5.298;2023-02-28T07:18:27;2.80;97.90
20915;DHT22;10617;52.032;5.298;2023-02-28T07:22:29;2.80;97.20
20915;DHT22;10617;52.032;5.298;2023-02-28T07:26:30;2.80;97.70
20915;DHT22;10617;52.032;5.298;2023-02-28T07:30:32;2.90;97.30
20915;DHT22;10617;52.032;5.298;2023-02-28T07:34:33;2.90;97.70
20915;DHT22;10617;52.032;5.298;2023-02-28T07:38:36;2.90;98.10
20915;DHT22;10617;52.032;5.298;2023-02-28T07:42:39;2.90;97.90
20915;DHT22;10617;52.032;5.298;2023-02-28T07:46:41;3.00;98.70
20915;DHT22;10617;52.032;5.298;2023-02-28T07:50:43;3.00;98.80
20915;DHT22;10617;52.032;5.298;2023-02-28T07:54:44;3.10;98.60
20915;DHT22;10617;52.032;5.298;2023-02-28T07:58:46;3.10;98.80
20915;DHT22;10617;52.032;5.298;2023-02-28T08:02:48;3.20;99.00
20915;DHT22;10617;52.032;5.298;2023-02-28T08:06:49;3.30;99.40
20915;DHT22;10617;52.032;5.298;2023-02-28T08:10:53;3.40;99.50
20915;DHT22;10617;52.032;5.298;2023-02-28T08:14:57;3.50;99.70
20915;DHT22;10617;52.032;5.298;2023-02-28T08:18:59;3.50;99.60
20915;DHT22;10617;52.032;5.298;2023-02-28T08:23:00;3.60;99.90
20915;DHT22;10617;52.032;5.298;2023-02-28T08:27:02;3.70;99.90
20915;DHT22;10617;52.032;5.298;2023-02-28T08:31:08;3.70;99.90
20915;DHT22;10617;52.032;5.298;2023-02-28T08:35:10;3.80;99.90
20915;DHT22;10617;52.032;5.298;2023-02-28T08:39:12;3.80;99.90
20915;DHT22;10617;52.032;5.298;2023-02-28T08:43:13;3.80;99.90
20915;DHT22;10617;52.032;5.298;2023-02-28T08:47:15;3.80;99.90
20915;DHT22;10617;52.032;5.298;2023-02-28T08:51:17;3.90;99.80
20915;DHT22;10617;52.032;5.298;2023-02-28T08:55:27;3.90;99.60
20915;DHT22;10617;52.032;5.298;2023-02-28T08:59:29;4.00;99.90
20915;DHT22;10617;52.032;5.298;2023-02-28T09:03:30;4.00;99.60
20915;DHT22;10617;52.032;5.298;2023-02-28T09:07:32;4.10;99.30
20915;DHT22;10617;52.032;5.298;2023-02-28T09:11:34;4.10;99.30
20915;DHT22;10617;52.032;5.298;2023-02-28T09:15:39;4.20;99.50
20915;DHT22;10617;52.032;5.298;2023-02-28T09:19:40;4.50;99.90
20915;DHT22;10617;52.032;5.298;2023-02-28T09:23:42;4.90;99.90
20915;DHT22;10617;52.032;5.298;2023-02-28T09:27:44;5.20;99.90
20915;DHT22;10617;52.032;5.298;2023-02-28T09:31:46;5.50;99.90
20915;DHT22;10617;52.032;5.298;2023-02-28T09:35:51;5.60;99.60
20915;DHT22;10617;52.032;5.298;2023-02-28T09:39:52;5.70;98.20
20915;DHT22;10617;52.032;5.298;2023-02-28T09:43:58;5.70;98.20
20915;DHT22;10617;52.032;5.298;2023-02-28T09:48:02;5.70;98.10
20915;DHT22;10617;52.032;5.298;2023-02-28T09:52:13;5.80;97.80
20915;DHT22;10617;52.032;5.298;2023-02-28T09:56:21;5.80;96.40
20915;DHT22;10617;52.032;5.298;2023-02-28T10:00:33;6.00;97.30
20915;DHT22;10617;52.032;5.298;2023-02-28T10:08:41;6.40;97.10
20915;DHT22;10617;52.032;5.298;2023-02-28T10:12:46;6.60;98.00
20915;DHT22;10617;52.032;5.298;2023-02-28T10:16:58;6.80;97.50
20915;DHT22;10617;52.032;5.298;2023-02-28T10:21:00;7.10;97.30
20915;DHT22;10617;52.032;5.298;2023-02-28T10:25:05;7.70;96.50
20915;DHT22;10617;52.032;5.298;2023-02-28T10:29:07;8.10;99.70
20915;DHT22;10617;52.032;5.298;2023-02-28T10:33:17;8.40;98.70
20915;DHT22;10617;52.032;5.298;2023-02-28T10:37:20;8.70;99.40
20915;DHT22;10617;52.032;5.298;2023-02-28T10:45:30;9.60;99.90
20915;DHT22;10617;52.032;5.298;2023-02-28T10:49:33;10.10;99.90
20915;DHT22;10617;52.032;5.298;2023-02-28T10:53:36;10.40;99.90
20915;DHT22;10617;52.032;5.298;2023-02-28T10:57:58;10.80;99.90
20915;DHT22;10617;52.032;5.298;2023-02-28T11:02:00;11.20;99.90
20915;DHT22;10617;52.032;5.298;2023-02-28T11:06:08;11.60;99.90
20915;DHT22;10617;52.032;5.298;2023-02-28T11:10:18;11.80;99.90
20915;DHT22;10617;52.032;5.298;2023-02-28T11:14:21;12.20;99.90
20915;DHT22;10617;52.032;5.298;2023-02-28T11:22:26;12.70;99.90
20915;DHT22;10617;52.032;5.298;2023-02-28T11:27:03;13.30;99.90
20915;DHT22;10617;52.032;5.298;2023-02-28T11:35:39;14.60;99.90
20915;DHT22;10617;52.032;5.298;2023-02-28T11:39:40;15.10;99.90
20915;DHT22;10617;52.032;5.298;2023-02-28T11:43:50;15.40;99.90
20915;DHT22;10617;52.032;5.298;2023-02-28T12:00:49;16.10;99.90
20915;DHT22;10617;52.032;5.298;2023-02-28T12:04:58;16.20;99.90
20915;DHT22;10617;52.032;5.298;2023-02-28T12:13:21;15.60;99.90
20915;DHT22;10617;52.032;5.298;2023-02-28T12:21:40;16.20;99.90
20915;DHT22;10617;52.032;5.298;2023-02-28T12:25:58;16.50;99.90
20915;DHT22;10617;52.032;5.298;2023-02-28T12:30:20;16.80;99.90
20915;DHT22;10617;52.032;5.298;2023-02-28T12:34:28;17.00;99.90
20915;DHT22;10617;52.032;5.298;2023-02-28T12:38:36;17.10;99.90
20915;DHT22;10617;52.032;5.298;2023-02-28T12:43:12;17.10;99.90
20915;DHT22;10617;52.032;5.298;2023-02-28T12:47:09;16.90;99.90
20915;DHT22;10617;52.032;5.298;2023-02-28T12:51:13;16.60;99.90
20915;DHT22;10617;52.032;5.298;2023-02-28T12:59:37;16.40;99.90
20915;DHT22;10617;52.032;5.298;2023-02-28T13:04:04;16.50;99.00
20915;DHT22;10617;52.032;5.298;2023-02-28T13:12:23;16.90;99.90
20915;DHT22;10617;52.032;5.298;2023-02-28T13:16:25;16.30;96.40
20915;DHT22;10617;52.032;5.298;2023-02-28T13:20:37;15.50;98.70
20915;DHT22;10617;52.032;5.298;2023-02-28T13:24:49;14.40;87.30
20915;DHT22;10617;52.032;5.298;2023-02-28T13:28:59;13.70;88.60
20915;DHT22;10617;52.032;5.298;2023-02-28T13:33:17;13.40;88.40
20915;DHT22;10617;52.032;5.298;2023-02-28T13:45:35;13.00;80.60
20915;DHT22;10617;52.032;5.298;2023-02-28T13:49:41;12.80;78.30
20915;DHT22;10617;52.032;5.298;2023-02-28T13:53:47;12.70;76.30
20915;DHT22;10617;52.032;5.298;2023-02-28T13:57:58;12.50;76.10
20915;DHT22;10617;52.032;5.298;2023-02-28T14:02:29;12.50;75.90
20915;DHT22;10617;52.032;5.298;2023-02-28T14:10:37;12.40;73.80
20915;DHT22;10617;52.032;5.298;2023-02-28T14:19:01;12.40;73.60
20915;DHT22;10617;52.032;5.298;2023-02-28T14:23:09;12.30;70.60
20915;DHT22;10617;52.032;5.298;2023-02-28T14:27:29;12.20;71.80
20915;DHT22;10617;52.032;5.298;2023-02-28T14:31:37;12.10;71.70
20915;DHT22;10617;52.032;5.298;2023-02-28T14:39:43;12.50;71.30
20915;DHT22;10617;52.032;5.298;2023-02-28T14:43:49;13.40;75.70
20915;DHT22;10617;52.032;5.298;2023-02-28T14:47:51;15.00;78.40
20915;DHT22;10617;52.032;5.298;2023-02-28T14:56:20;16.70;86.20
20915;DHT22;10617;52.032;5.298;2023-02-28T15:00:27;17.80;89.10
20915;DHT22;10617;52.032;5.298;2023-02-28T15:04:28;18.50;90.20
20915;DHT22;10617;52.032;5.298;2023-02-28T15:08:33;19.00;90.10
20915;DHT22;10617;52.032;5.298;2023-02-28T15:12:37;19.30;84.70
20915;DHT22;10617;52.032;5.298;2023-02-28T15:16:41;19.00;86.70
20915;DHT22;10617;52.032;5.298;2023-02-28T15:20:44;18.40;82.30
20915;DHT22;10617;52.032;5.298;2023-02-28T15:24:47;17.80;81.40
20915;DHT22;10617;52.032;5.298;2023-02-28T15:28:55;17.60;82.80
20915;DHT22;10617;52.032;5.298;2023-02-28T15:33:05;17.70;81.60
20915;DHT22;10617;52.032;5.298;2023-02-28T15:41:28;17.70;79.30
20915;DHT22;10617;52.032;5.298;2023-02-28T15:49:52;16.60;77.50
20915;DHT22;10617;52.032;5.298;2023-02-28T15:53:56;16.30;75.80
20915;DHT22;10617;52.032;5.298;2023-02-28T15:58:00;16.30;72.80
20915;DHT22;10617;52.032;5.298;2023-02-28T16:02:14;16.00;70.60
20915;DHT22;10617;52.032;5.298;2023-02-28T16:10:18;15.40;69.80
20915;DHT22;10617;52.032;5.298;2023-02-28T16:14:20;15.20;68.50
20915;DHT22;10617;52.032;5.298;2023-02-28T16:18:24;15.10;68.70
20915;DHT22;10617;52.032;5.298;2023-02-28T16:22:26;14.90;69.60
20915;DHT22;10617;52.032;5.298;2023-02-28T16:26:27;14.60;67.60
20915;DHT22;10617;52.032;5.298;2023-02-28T16:30:29;14.10;66.10
20915;DHT22;10617;52.032;5.298;2023-02-28T16:34:34;13.70;65.00
20915;DHT22;10617;52.032;5.298;2023-02-28T16:38:35;13.30;64.30
20915;DHT22;10617;52.032;5.298;2023-02-28T16:42:37;13.10;63.20
20915;DHT22;10617;52.032;5.298;2023-02-28T16:46:39;12.60;61.70
20915;DHT22;10617;52.032;5.298;2023-02-28T16:50:41;12.10;61.10
20915;DHT22;10617;52.032;5.298;2023-02-28T16:54:43;11.70;60.80
20915;DHT22;10617;52.032;5.298;2023-02-28T16:58:45;11.30;59.70
20915;DHT22;10617;52.032;5.298;2023-02-28T17:02:47;10.90;59.40
20915;DHT22;10617;52.032;5.298;2023-02-28T17:06:49;10.60;59.00
20915;DHT22;10617;52.032;5.298;2023-02-28T17:10:50;10.30;58.60
20915;DHT22;10617;52.032;5.298;2023-02-28T17:14:52;10.10;58.20
20915;DHT22;10617;52.032;5.298;2023-02-28T17:18:54;10.00;57.90
20915;DHT22;10617;52.032;5.298;2023-02-28T17:22:58;9.90;58.40
20915;DHT22;10617;52.032;5.298;2023-02-28T17:26:59;9.70;58.10
20915;DHT22;10617;52.032;5.298;2023-02-28T17:31:01;9.50;57.40
20915;DHT22;10617;52.032;5.298;2023-02-28T17:35:03;9.30;57.10
20915;DHT22;10617;52.032;5.298;2023-02-28T17:39:05;9.10;57.00
20915;DHT22;10617;52.032;5.298;2023-02-28T17:43:10;8.90;56.90
20915;DHT22;10617;52.032;5.298;2023-02-28T17:47:12;8.80;56.80
20915;DHT22;10617;52.032;5.298;2023-02-28T17:51:14;8.60;56.60
20915;DHT22;10617;52.032;5.298;2023-02-28T17:55:16;8.40;56.40
20915;DHT22;10617;52.032;5.298;2023-02-28T17:59:17;8.10;56.20
20915;DHT22;10617;52.032;5.298;2023-02-28T18:03:19;8.00;56.20
20915;DHT22;10617;52.032;5.298;2023-02-28T18:07:21;7.90;56.10
20915;DHT22;10617;52.032;5.298;2023-02-28T18:11:25;7.70;55.90
20915;DHT22;10617;52.032;5.298;2023-02-28T18:15:42;7.60;55.90
20915;DHT22;10617;52.032;5.298;2023-02-28T18:19:43;7.40;55.80
20915;DHT22;10617;52.032;5.298;2023-02-28T18:23:45;7.20;55.80
20915;DHT22;10617;52.032;5.298;2023-02-28T18:27:50;7.10;55.90
20915;DHT22;10617;52.032;5.298;2023-02-28T18:31:58;6.90;55.80
20915;DHT22;10617;52.032;5.298;2023-02-28T18:36:02;6.80;55.80
20915;DHT22;10617;52.032;5.298;2023-02-28T18:40:04;6.60;56.10
20915;DHT22;10617;52.032;5.298;2023-02-28T18:44:07;6.50;55.70
20915;DHT22;10617;52.032;5.298;2023-02-28T18:48:20;6.40;55.80
20915;DHT22;10617;52.032;5.298;2023-02-28T18:52:23;6.20;55.70
20915;DHT22;10617;52.032;5.298;2023-02-28T18:56:25;6.00;55.50
20915;DHT22;10617;52.032;5.298;2023-02-28T19:00:26;5.90;55.70
20915;DHT22;10617;52.032;5.298;2023-02-28T19:09:31;5.60;55.40
20915;DHT22;10617;52.032;5.298;2023-02-28T19:13:33;5.50;55.50
20915;DHT22;10617;52.032;5.298;2023-02-28T19:17:34;5.50;55.40
20915;DHT22;10617;52.032;5.298;2023-02-28T19:21:37;5.40;55.90
20915;DHT22;10617;52.032;5.298;2023-02-28T19:25:41;5.30;55.30
20915;DHT22;10617;52.032;5.298;2023-02-28T19:29:43;5.20;55.30
20915;DHT22;10617;52.032;5.298;2023-02-28T19:33:45;5.10;55.30
20915;DHT22;10617;52.032;5.298;2023-02-28T19:37:47;5.00;55.30
20915;DHT22;10617;52.032;5.298;2023-02-28T19:41:48;4.80;55.10
20915;DHT22;10617;52.032;5.298;2023-02-28T19:45:50;4.70;55.10
20915;DHT22;10617;52.032;5.298;2023-02-28T19:49:51;4.60;55.10
20915;DHT22;10617;52.032;5.298;2023-02-28T19:53:55;4.50;55.00
20915;DHT22;10617;52.032;5.298;2023-02-28T19:57:56;4.40;55.60
20915;DHT22;10617;52.032;5.298;2023-02-28T20:01:58;4.30;55.00
20915;DHT22;10617;52.032;5.298;2023-02-28T20:06:01;4.20;55.00
20915;DHT22;10617;52.032;5.298;2023-02-28T20:10:03;4.00;55.10
20915;DHT22;10617;52.032;5.298;2023-02-28T20:14:04;3.80;54.90
20915;DHT22;10617;52.032;5.298;2023-02-28T20:18:06;3.70;55.00
20915;DHT22;10617;52.032;5.298;2023-02-28T20:26:47;3.60;55.30
20915;DHT22;10617;52.032;5.298;2023-02-28T20:30:48;3.50;55.50
20915;DHT22;10617;52.032;5.298;2023-02-28T20:34:51;3.40;54.90
20915;DHT22;10617;52.032;5.298;2023-02-28T20:38:52;3.30;55.00
20915;DHT22;10617;52.032;5.298;2023-02-28T20:42:55;3.30;55.10
20915;DHT22;10617;52.032;5.298;2023-02-28T20:46:56;3.30;55.10
20915;DHT22;10617;52.032;5.298;2023-02-28T20:50:58;3.20;55.60
20915;DHT22;10617;52.032;5.298;2023-02-28T20:55:00;3.10;55.20
20915;DHT22;10617;52.032;5.298;2023-02-28T21:09:10;2.90;55.50
20915;DHT22;10617;52.032;5.298;2023-02-28T21:13:12;2.70;55.50
20915;DHT22;10617;52.032;5.298;2023-02-28T21:17:14;2.70;55.80
20915;DHT22;10617;52.032;5.298;2023-02-28T21:21:16;2.80;55.60
20915;DHT22;10617;52.032;5.298;2023-02-28T21:25:18;2.70;55.30
20915;DHT22;10617;52.032;5.298;2023-02-28T21:29:20;2.70;55.40
20915;DHT22;10617;52.032;5.298;2023-02-28T21:33:22;2.60;55.30
20915;DHT22;10617;52.032;5.298;2023-02-28T21:37:23;2.60;55.30
20915;DHT22;10617;52.032;5.298;2023-02-28T21:41:25;2.50;55.30
20915;DHT22;10617;52.032;5.298;2023-02-28T21:45:28;2.50;55.40
20915;DHT22;10617;52.032;5.298;2023-02-28T21:49:30;2.40;55.40
20915;DHT22;10617;52.032;5.298;2023-02-28T21:53:32;2.30;55.20
20915;DHT22;10617;52.032;5.298;2023-02-28T21:57:34;2.30;55.30
20915;DHT22;10617;52.032;5.298;2023-02-28T22:01:37;2.20;55.60
20915;DHT22;10617;52.032;5.298;2023-02-28T22:05:39;2.10;55.50
20915;DHT22;10617;52.032;5.298;2023-02-28T22:09:41;2.00;55.30
20915;DHT22;10617;52.032;5.298;2023-02-28T22:13:43;2.00;55.40
20915;DHT22;10617;52.032;5.298;2023-02-28T22:17:44;2.00;55.50
20915;DHT22;10617;52.032;5.298;2023-02-28T22:21:46;1.80;56.50
20915;DHT22;10617;52.032;5.298;2023-02-28T22:25:48;1.70;55.50
20915;DHT22;10617;52.032;5.298;2023-02-28T22:29:50;1.70;55.90
20915;DHT22;10617;52.032;5.298;2023-02-28T22:33:55;1.60;55.60
20915;DHT22;10617;52.032;5.298;2023-02-28T22:37:57;1.60;55.40
20915;DHT22;10617;52.032;5.298;2023-02-28T22:41:59;1.60;55.50
20915;DHT22;10617;52.032;5.298;2023-02-28T22:46:04;1.60;55.30
20915;DHT22;10617;52.032;5.298;2023-02-28T22:50:07;1.60;55.40
20915;DHT22;10617;52.032;5.298;2023-02-28T22:54:08;1.50;55.20
20915;DHT22;10617;52.032;5.298;2023-02-28T22:58:10;1.40;55.60
20915;DHT22;10617;52.032;5.298;2023-02-28T23:02:12;1.40;55.50
20915;DHT22;10617;52.032;5.298;2023-02-28T23:06:16;1.30;55.70
20915;DHT22;10617;52.032;5.298;2023-02-28T23:10:18;1.30;55.40
20915;DHT22;10617;52.032;5.298;2023-02-28T23:14:19;1.20;55.40
20915;DHT22;10617;52.032;5.298;2023-02-28T23:18:21;1.10;55.60
20915;DHT22;10617;52.032;5.298;2023-02-28T23:22:23;1.00;55.60
20915;DHT22;10617;52.032;5.298;2023-02-28T23:26:24;1.00;55.90
20915;DHT22;10617;52.032;5.298;2023-02-28T23:30:26;1.00;55.70
20915;DHT22;10617;52.032;5.298;2023-02-28T23:34:28;0.90;56.10
20915;DHT22;10617;52.032;5.298;2023-02-28T23:38:32;0.90;55.80
20915;DHT22;10617;52.032;5.298;2023-02-28T23:42:34;0.80;55.80
20915;DHT22;10617;52.032;5.298;2023-02-28T23:46:35;0.80;56.00
20915;DHT22;10617;52.032;5.298;2023-02-28T23:50:37;0.70;55.80
20915;DHT22;10617;52.032;5.298;2023-02-28T23:54:39;0.70;55.80
20915;DHT22;10617;52.032;5.298;2023-02-28T23:58:41;0.60;55.50
